createdAt,value
2023-04-15T00:01:08.430Z,91.46
2023-04-15T00:03:36.934Z,93.10
2023-04-15T00:06:05.075Z,93.48
2023-04-15T00:08:33.208Z,93.18
2023-04-15T00:11:03.039Z,93.44
2023-04-15T00:13:32.529Z,93.66
2023-04-15T00:16:00.744Z,94.28
2023-04-15T00:18:29.573Z,94.33
2023-04-15T00:20:57.355Z,93.55
2023-04-15T00:23:25.288Z,95.41
2023-04-15T00:25:53.054Z,94.55
2023-04-15T00:28:20.974Z,94.36
2023-04-15T00:30:50.101Z,94.16
2023-04-15T00:33:18.268Z,93.98
2023-04-15T00:35:46.117Z,93.60
2023-04-15T00:38:13.818Z,95.25
2023-04-15T00:40:43.530Z,95.15
2023-04-15T00:43:11.342Z,95.72
2023-04-15T00:45:39.210Z,95.17
2023-04-15T00:48:09.502Z,95.06
2023-04-15T00:50:37.184Z,94.57
2023-04-15T00:53:06.177Z,94.76
2023-04-15T00:55:33.880Z,95.31
2023-04-15T00:58:01.766Z,95.56
2023-04-15T01:00:30.329Z,95.74
2023-04-15T01:02:59.950Z,97.15
2023-04-15T01:05:30.259Z,96.22
2023-04-15T01:07:58.017Z,96.45
2023-04-15T01:10:25.842Z,96.17
2023-04-15T01:12:53.570Z,95.36
2023-04-15T01:15:21.884Z,95.69
2023-04-15T01:17:50.155Z,95.48
2023-04-15T01:20:18.176Z,95.23
2023-04-15T01:22:47.945Z,95.19
2023-04-15T01:25:20.233Z,94.99
2023-04-15T01:27:49.458Z,95.50
2023-04-15T01:30:17.472Z,94.96
2023-04-15T01:32:45.304Z,95.02
2023-04-15T01:35:13.117Z,95.52
2023-04-15T01:37:41.085Z,95.86
2023-04-15T01:40:09.832Z,95.67
2023-04-15T01:42:38.716Z,95.93
2023-04-15T01:45:09.249Z,95.95
2023-04-15T01:47:38.824Z,95.64
2023-04-15T01:50:08.488Z,96.32
2023-04-15T01:52:36.212Z,96.20
2023-04-15T01:55:04.324Z,97.21
2023-04-15T01:57:32.502Z,97.64
2023-04-15T02:00:00.297Z,95.38
2023-04-15T02:02:29.510Z,94.17
2023-04-15T02:04:57.473Z,95.26
2023-04-15T02:07:25.504Z,97.35
2023-04-15T02:09:53.294Z,97.33
2023-04-15T02:12:21.125Z,96.83
2023-04-15T02:14:48.876Z,97.21
2023-04-15T02:17:17.383Z,97.86
2023-04-15T02:19:46.490Z,98.02
2023-04-15T02:22:18.401Z,97.93
2023-04-15T02:24:47.492Z,96.51
2023-04-15T02:27:17.978Z,96.87
2023-04-15T02:29:45.895Z,98.31
2023-04-15T02:32:14.043Z,100.00
2023-04-15T02:34:42.791Z,97.91
2023-04-15T02:37:13.473Z,97.85
2023-04-15T02:39:41.305Z,97.84
2023-04-15T02:42:09.107Z,98.27
2023-04-15T02:44:37.677Z,96.88
2023-04-15T02:47:07.413Z,97.62
2023-04-15T02:49:35.223Z,97.18
2023-04-15T02:52:03.013Z,97.88
2023-04-15T02:54:33.904Z,97.75
2023-04-15T02:57:02.096Z,98.06
2023-04-15T02:59:30.122Z,97.45
2023-04-15T03:02:00.874Z,96.24
2023-04-15T03:04:30.163Z,97.25
2023-04-15T03:06:57.893Z,96.71
2023-04-15T03:09:26.712Z,97.46
2023-04-15T03:11:56.948Z,97.90
2023-04-15T03:14:25.738Z,99.68
2023-04-15T03:16:53.691Z,99.51
2023-04-15T03:19:21.468Z,99.02
2023-04-15T03:21:49.259Z,99.58
2023-04-15T03:24:17.459Z,98.38
2023-04-15T03:26:46.392Z,97.68
2023-04-15T03:29:18.757Z,98.69
2023-04-15T03:31:47.226Z,99.83
2023-04-15T03:34:15.025Z,100.00
2023-04-15T03:36:42.891Z,100.00
2023-04-15T03:39:10.947Z,99.34
2023-04-15T03:41:38.610Z,99.97
2023-04-15T03:44:06.661Z,100.00
2023-04-15T03:46:35.840Z,100.00
2023-04-15T03:49:04.077Z,99.68
2023-04-15T03:51:32.313Z,99.52
2023-04-15T03:53:59.972Z,99.79
2023-04-15T03:56:27.765Z,99.82
2023-04-15T03:58:55.638Z,99.04
2023-04-15T04:01:23.922Z,99.67
2023-04-15T04:03:53.207Z,98.78
2023-04-15T04:06:21.203Z,99.37
2023-04-15T04:08:48.961Z,99.93
2023-04-15T04:11:17.213Z,100.00
2023-04-15T04:13:45.094Z,100.00
2023-04-15T04:16:12.958Z,100.00
2023-04-15T04:18:40.902Z,100.00
2023-04-15T04:21:09.965Z,99.80
2023-04-15T04:23:37.803Z,100.00
2023-04-15T04:26:05.519Z,100.00
2023-04-15T04:28:33.385Z,99.94
2023-04-15T04:31:01.242Z,100.00
2023-04-15T04:33:29.096Z,100.00
2023-04-15T04:35:56.769Z,100.00
2023-04-15T04:38:25.973Z,98.99
2023-04-15T04:40:53.767Z,100.00
2023-04-15T04:43:21.599Z,100.00
2023-04-15T04:45:49.352Z,100.00
2023-04-15T04:48:17.422Z,100.00
2023-04-15T04:50:46.982Z,100.00
2023-04-15T04:53:14.857Z,100.00
2023-04-15T04:55:44.017Z,100.00
2023-04-15T04:58:11.799Z,100.00
2023-04-15T05:00:39.768Z,100.00
2023-04-15T05:03:07.695Z,100.00
2023-04-15T05:05:36.946Z,100.00
2023-04-15T05:08:04.805Z,100.00
2023-04-15T05:10:32.802Z,100.00
2023-04-15T05:13:02.075Z,100.00
2023-04-15T05:15:29.857Z,100.00
2023-04-15T05:17:57.624Z,100.00
2023-04-15T05:20:25.454Z,100.00
2023-04-15T05:22:53.148Z,100.00
2023-04-15T05:25:21.277Z,100.00
2023-04-15T05:27:49.075Z,100.00
2023-04-15T05:30:18.312Z,100.00
2023-04-15T05:32:46.180Z,100.00
2023-04-15T05:35:13.980Z,100.00
2023-04-15T05:37:41.998Z,100.00
2023-04-15T05:40:10.654Z,100.00
2023-04-15T05:42:38.574Z,100.00
2023-04-15T05:45:09.317Z,100.00
2023-04-15T05:47:38.529Z,100.00
2023-04-15T05:50:07.278Z,100.00
2023-04-15T05:52:35.029Z,100.00
2023-04-15T05:55:02.845Z,100.00
2023-04-15T05:57:30.565Z,100.00
2023-04-15T05:59:58.494Z,100.00
2023-04-15T06:02:26.605Z,100.00
2023-04-15T06:04:55.919Z,100.00
2023-04-15T06:07:23.710Z,100.00
2023-04-15T06:09:51.574Z,100.00
2023-04-15T06:12:19.569Z,100.00
2023-04-15T06:14:47.651Z,100.00
2023-04-15T06:17:18.477Z,100.00
2023-04-15T06:19:46.343Z,100.00
2023-04-15T06:22:15.767Z,100.00
2023-04-15T06:24:43.560Z,100.00
2023-04-15T06:27:11.408Z,100.00
2023-04-15T06:29:39.275Z,100.00
2023-04-15T06:32:07.753Z,100.00
2023-04-15T06:34:35.652Z,100.00
2023-04-15T06:37:06.142Z,100.00
2023-04-15T06:39:35.545Z,100.00
2023-04-15T06:42:04.555Z,100.00
2023-04-15T06:44:33.869Z,100.00
2023-04-15T06:47:03.063Z,100.00
2023-04-15T06:49:30.959Z,100.00
2023-04-15T06:51:58.776Z,100.00
2023-04-15T06:54:26.596Z,100.00
2023-04-15T06:56:55.760Z,100.00
2023-04-15T06:59:24.126Z,100.00
2023-04-15T07:01:51.952Z,100.00
2023-04-15T07:04:20.472Z,100.00
2023-04-15T07:06:48.251Z,100.00
2023-04-15T07:09:15.987Z,100.00
2023-04-15T07:11:43.784Z,100.00
2023-04-15T07:14:12.987Z,100.00
2023-04-15T07:16:40.715Z,100.00
2023-04-15T07:19:08.445Z,100.00
2023-04-15T07:21:36.240Z,100.00
2023-04-15T07:24:03.970Z,100.00
2023-04-15T07:26:31.825Z,100.00
2023-04-15T07:28:59.930Z,100.00
2023-04-15T07:31:29.500Z,100.00
2023-04-15T07:33:57.366Z,98.87
2023-04-15T07:36:25.157Z,95.00
2023-04-15T07:38:53.140Z,94.24
2023-04-15T07:41:20.974Z,93.98
2023-04-15T07:43:48.930Z,92.64
2023-04-15T07:46:16.713Z,88.36
2023-04-15T07:48:46.440Z,86.53
2023-04-15T07:51:14.218Z,85.23
2023-04-15T07:53:42.312Z,84.08
2023-04-15T07:56:09.984Z,84.09
2023-04-15T07:58:37.681Z,85.27
2023-04-15T08:01:06.001Z,86.62
2023-04-15T08:03:34.115Z,83.43
2023-04-15T08:06:03.368Z,81.00
2023-04-15T08:08:31.196Z,80.46
2023-04-15T08:10:59.381Z,79.37
2023-04-15T08:13:27.817Z,79.82
2023-04-15T08:16:16.187Z,78.73
2023-04-15T08:18:44.015Z,81.27
2023-04-15T08:21:13.319Z,78.24
2023-04-15T08:23:41.220Z,79.97
2023-04-15T08:26:09.696Z,78.57
2023-04-15T08:28:39.487Z,77.95
2023-04-15T08:31:07.589Z,80.95
2023-04-15T08:33:35.317Z,76.75
2023-04-15T08:36:03.368Z,76.36
2023-04-15T08:38:32.521Z,75.63
2023-04-15T08:41:01.794Z,74.98
2023-04-15T08:43:35.520Z,75.21
2023-04-15T08:46:05.321Z,74.86
2023-04-15T08:48:34.525Z,73.62
2023-04-15T08:51:03.103Z,72.37
2023-04-15T08:53:32.686Z,73.08
2023-04-15T08:56:03.542Z,73.02
2023-04-15T08:58:31.467Z,72.69
2023-04-15T09:00:59.928Z,73.16
2023-04-15T09:03:29.445Z,73.75
2023-04-15T09:05:58.327Z,72.63
2023-04-15T09:08:26.277Z,73.18
2023-04-15T09:10:56.404Z,71.50
2023-04-15T09:13:24.274Z,72.00
2023-04-15T09:15:52.296Z,71.80
2023-04-15T09:18:29.734Z,72.10
2023-04-15T09:20:57.545Z,72.75
2023-04-15T09:23:25.342Z,76.02
2023-04-15T09:25:53.216Z,72.75
2023-04-15T09:28:27.382Z,71.09
2023-04-15T09:30:57.754Z,71.47
2023-04-15T09:33:27.063Z,70.43
2023-04-15T09:36:00.026Z,70.86
2023-04-15T09:38:28.941Z,70.91
2023-04-15T09:40:57.123Z,69.19
2023-04-15T09:43:38.866Z,70.28
2023-04-15T09:46:06.779Z,71.20
2023-04-15T09:48:34.518Z,71.62
2023-04-15T09:51:02.837Z,72.88
2023-04-15T09:53:31.921Z,71.65
2023-04-15T09:56:01.414Z,72.54
2023-04-15T09:58:32.268Z,72.42
2023-04-15T10:01:01.869Z,72.14
2023-04-15T10:03:31.636Z,72.33
2023-04-15T10:06:00.875Z,72.11
2023-04-15T10:08:31.048Z,70.75
2023-04-15T10:10:59.194Z,71.56
2023-04-15T10:13:28.935Z,70.70
2023-04-15T10:16:00.520Z,71.65
2023-04-15T10:18:29.750Z,71.37
2023-04-15T10:21:00.558Z,70.64
2023-04-15T10:23:28.888Z,69.17
2023-04-15T10:25:58.512Z,68.82
2023-04-15T10:28:27.384Z,66.69
2023-04-15T10:30:55.158Z,68.04
2023-04-15T10:33:26.696Z,67.33
2023-04-15T10:35:57.125Z,65.97
2023-04-15T10:38:36.117Z,66.66
2023-04-15T10:41:20.209Z,66.47
2023-04-15T10:43:53.759Z,66.35
2023-04-15T10:46:24.077Z,66.39
2023-04-15T10:48:55.012Z,66.53
2023-04-15T10:51:30.913Z,66.15
2023-04-15T10:53:59.934Z,66.38
2023-04-15T10:56:29.757Z,68.40
2023-04-15T10:59:00.365Z,67.08
2023-04-15T11:01:51.459Z,66.46
2023-04-15T11:04:52.482Z,66.49
2023-04-15T11:07:39.576Z,66.62
2023-04-15T11:10:58.802Z,67.19
2023-04-15T11:13:30.499Z,66.95
2023-04-15T11:16:03.260Z,67.30
2023-04-15T11:18:32.966Z,67.98
2023-04-15T11:21:03.815Z,67.12
2023-04-15T11:23:34.868Z,68.98
2023-04-15T11:26:05.598Z,69.69
2023-04-15T11:28:35.008Z,70.29
2023-04-15T11:31:11.889Z,69.14
2023-04-15T11:33:46.097Z,69.58
2023-04-15T11:36:14.267Z,68.36
2023-04-15T11:38:44.308Z,70.94
2023-04-15T11:41:12.700Z,72.02
2023-04-15T11:43:42.569Z,71.90
2023-04-15T11:46:10.612Z,72.09
2023-04-15T11:48:42.818Z,69.94
2023-04-15T11:51:10.913Z,71.86
2023-04-15T11:53:41.155Z,71.98
2023-04-15T11:56:10.598Z,72.53
2023-04-15T11:58:39.732Z,73.36
2023-04-15T12:01:08.847Z,74.69
2023-04-15T12:03:41.692Z,73.53
2023-04-15T12:06:19.399Z,73.50
2023-04-15T12:08:58.346Z,73.27
2023-04-15T12:11:31.651Z,72.58
2023-04-15T12:14:03.854Z,74.57
2023-04-15T12:16:37.215Z,76.28
2023-04-15T12:19:19.310Z,76.00
2023-04-15T12:21:49.264Z,77.25
2023-04-15T12:24:20.948Z,76.40
2023-04-15T12:26:50.564Z,78.47
2023-04-15T12:29:18.887Z,80.89
2023-04-15T12:31:52.966Z,79.14
2023-04-15T12:34:27.975Z,79.48
2023-04-15T12:36:56.374Z,78.40
2023-04-15T12:39:25.206Z,79.30
2023-04-15T12:41:53.437Z,77.89
2023-04-15T12:44:23.986Z,78.20
2023-04-15T12:46:54.433Z,79.04
2023-04-15T12:49:23.030Z,79.17
2023-04-15T12:51:52.740Z,79.68
2023-04-15T12:54:21.304Z,81.07
2023-04-15T12:56:51.060Z,80.93
2023-04-15T12:59:19.573Z,82.53
2023-04-15T13:01:47.864Z,81.16
2023-04-15T13:04:17.395Z,81.70
2023-04-15T13:06:45.456Z,82.19
2023-04-15T13:09:13.197Z,81.59
2023-04-15T13:11:41.346Z,83.11
2023-04-15T13:14:11.449Z,82.79
2023-04-15T13:16:39.751Z,83.00
2023-04-15T13:19:07.657Z,84.02
2023-04-15T13:21:37.003Z,82.16
2023-04-15T13:24:07.230Z,83.35
2023-04-15T13:26:35.976Z,82.84
2023-04-15T13:29:05.062Z,81.83
2023-04-15T13:31:32.929Z,81.96
2023-04-15T13:34:00.831Z,83.63
2023-04-15T13:36:28.551Z,84.09
2023-04-15T13:38:58.357Z,83.21
2023-04-15T13:41:27.423Z,86.60
2023-04-15T13:43:55.099Z,86.81
2023-04-15T13:46:22.988Z,84.73
2023-04-15T13:48:50.881Z,83.51
2023-04-15T13:51:18.610Z,81.44
2023-04-15T13:53:46.345Z,81.45
2023-04-15T13:56:15.509Z,81.98
2023-04-15T13:58:43.220Z,82.44
2023-04-15T14:01:14.461Z,85.64
2023-04-15T14:03:42.431Z,85.43
2023-04-15T14:06:10.537Z,90.10
2023-04-15T14:08:38.296Z,89.91
2023-04-15T14:11:07.424Z,93.06
2023-04-15T14:13:36.885Z,92.80
2023-04-15T14:16:04.875Z,93.07
2023-04-15T14:18:32.626Z,95.37
2023-04-15T14:21:00.366Z,95.92
2023-04-15T14:23:28.208Z,97.03
2023-04-15T14:25:56.180Z,97.30
2023-04-15T14:28:23.848Z,97.58
2023-04-15T14:30:53.417Z,98.41
2023-04-15T14:33:21.233Z,95.82
2023-04-15T14:35:53.570Z,97.06
2023-04-15T14:38:22.831Z,94.39
2023-04-15T14:40:50.588Z,96.34
2023-04-15T14:43:18.345Z,97.07
2023-04-15T14:45:46.271Z,96.01
2023-04-15T14:48:15.657Z,95.70
2023-04-15T14:50:43.520Z,94.96
2023-04-15T14:53:11.252Z,97.17
2023-04-15T14:55:39.027Z,96.24
2023-04-15T14:58:08.167Z,99.66
2023-04-15T15:00:36.071Z,98.17
2023-04-15T15:03:03.979Z,94.60
2023-04-15T15:05:33.578Z,95.43
2023-04-15T15:08:01.463Z,95.18
2023-04-15T15:10:39.525Z,94.30
2023-04-15T15:13:16.815Z,98.75
2023-04-15T15:15:44.721Z,98.48
2023-04-15T15:18:12.595Z,100.00
2023-04-15T15:20:41.836Z,100.00
2023-04-15T15:23:09.589Z,100.00
2023-04-15T15:25:37.446Z,100.00
2023-04-15T15:28:05.605Z,100.00
2023-04-15T15:30:33.455Z,100.00
2023-04-15T15:33:01.222Z,100.00
2023-04-15T15:35:29.107Z,100.00
2023-04-15T15:37:58.219Z,100.00
2023-04-15T15:40:25.906Z,100.00
2023-04-15T15:42:53.847Z,100.00
2023-04-15T15:45:21.682Z,100.00
2023-04-15T15:47:49.576Z,100.00
2023-04-15T15:50:17.366Z,100.00
2023-04-15T15:52:45.223Z,100.00
2023-04-15T15:55:14.479Z,100.00
2023-04-15T15:57:42.254Z,100.00
2023-04-15T16:00:12.855Z,100.00
2023-04-15T16:05:12.402Z,100.00
2023-04-15T16:07:40.154Z,100.00
2023-04-15T16:10:08.916Z,100.00
2023-04-15T16:12:38.017Z,100.00
2023-04-15T16:15:06.777Z,100.00
2023-04-15T16:17:34.808Z,100.00
2023-04-15T16:20:05.551Z,100.00
2023-04-15T16:22:34.222Z,100.00
2023-04-15T16:25:02.608Z,100.00
2023-04-15T16:27:30.342Z,100.00
2023-04-15T16:29:59.432Z,100.00
2023-04-15T16:32:27.642Z,100.00
2023-04-15T16:34:55.507Z,100.00
2023-04-15T16:37:23.301Z,100.00
2023-04-15T16:39:54.044Z,100.00
2023-04-15T16:42:21.888Z,100.00
2023-04-15T16:44:49.649Z,100.00
2023-04-15T16:47:18.733Z,100.00
2023-04-15T16:49:46.408Z,100.00
2023-04-15T16:52:14.437Z,100.00
2023-04-15T16:54:42.162Z,100.00
2023-04-15T16:57:10.155Z,100.00
2023-04-15T16:59:38.986Z,100.00
2023-04-15T17:02:06.807Z,100.00
2023-04-15T17:04:35.996Z,100.00
2023-04-15T17:07:04.055Z,100.00
2023-04-15T17:09:31.876Z,100.00
2023-04-15T17:11:59.741Z,100.00
2023-04-15T17:14:28.779Z,100.00
2023-04-15T17:16:56.631Z,100.00
2023-04-15T17:19:24.533Z,100.00
2023-04-15T17:21:54.931Z,100.00
2023-04-15T17:24:23.041Z,100.00
2023-04-15T17:26:51.043Z,100.00
2023-04-15T17:29:18.796Z,100.00
2023-04-15T17:31:46.750Z,100.00
2023-04-15T17:34:15.844Z,100.00
2023-04-15T17:36:43.993Z,100.00
2023-04-15T17:39:14.997Z,100.00
2023-04-15T17:41:42.980Z,100.00
2023-04-15T17:44:10.976Z,100.00
2023-04-15T17:46:38.769Z,100.00
2023-04-15T17:49:06.891Z,100.00
2023-04-15T17:51:34.719Z,100.00
2023-04-15T17:54:08.396Z,100.00
2023-04-15T17:56:37.521Z,100.00
2023-04-15T17:59:06.342Z,100.00
2023-04-15T18:01:34.157Z,100.00
2023-04-15T18:04:02.101Z,100.00
2023-04-15T18:06:30.991Z,100.00
2023-04-15T18:08:58.720Z,100.00
2023-04-15T18:11:26.484Z,100.00
2023-04-15T18:13:55.576Z,100.00
2023-04-15T18:16:23.688Z,100.00
2023-04-15T18:18:52.241Z,100.00
2023-04-15T18:21:19.969Z,100.00
2023-04-15T18:23:47.675Z,100.00
2023-04-15T18:26:15.616Z,100.00
2023-04-15T18:28:43.332Z,100.00
2023-04-15T18:31:12.426Z,100.00
2023-04-15T18:33:40.252Z,100.00
2023-04-15T18:36:08.042Z,100.00
2023-04-15T18:38:36.017Z,100.00
2023-04-15T18:41:05.370Z,100.00
2023-04-15T18:43:33.284Z,100.00
2023-04-15T18:46:01.851Z,100.00
2023-04-15T18:48:31.138Z,100.00
2023-04-15T18:50:58.884Z,100.00
2023-04-15T18:53:27.955Z,100.00
2023-04-15T18:55:56.236Z,100.00
2023-04-15T18:58:24.080Z,100.00
2023-04-15T19:00:51.874Z,100.00
2023-04-15T19:03:19.838Z,100.00
2023-04-15T19:05:49.034Z,100.00
2023-04-15T19:08:17.021Z,100.00
2023-04-15T19:10:44.830Z,100.00
2023-04-15T19:13:12.929Z,100.00
2023-04-15T19:15:40.677Z,100.00
2023-04-15T19:18:10.509Z,100.00
2023-04-15T19:20:40.238Z,100.00
2023-04-15T19:23:09.575Z,100.00
2023-04-15T19:25:38.727Z,100.00
2023-04-15T19:28:06.808Z,100.00
2023-04-15T19:30:34.685Z,100.00
2023-04-15T19:33:02.502Z,100.00
2023-04-15T19:35:30.454Z,100.00
2023-04-15T19:37:58.231Z,100.00
2023-04-15T19:40:27.447Z,100.00
2023-04-15T19:42:55.305Z,100.00
2023-04-15T19:45:23.266Z,100.00
2023-04-15T19:47:51.119Z,100.00
2023-04-15T19:50:24.472Z,100.00
2023-04-15T19:52:52.481Z,100.00
2023-04-15T19:55:20.424Z,100.00
2023-04-15T19:57:49.601Z,100.00
2023-04-15T20:00:17.467Z,100.00
2023-04-15T20:02:45.515Z,100.00
2023-04-15T20:05:13.908Z,100.00
2023-04-15T20:07:42.483Z,100.00
2023-04-15T20:10:13.229Z,100.00
2023-04-15T20:12:50.465Z,100.00
2023-04-15T20:15:23.723Z,100.00
2023-04-15T20:17:51.808Z,100.00
2023-04-15T20:20:20.012Z,100.00
2023-04-15T20:22:47.768Z,100.00
2023-04-15T20:25:15.820Z,100.00
2023-04-15T20:27:43.565Z,100.00
2023-04-15T20:30:12.116Z,100.00
2023-04-15T20:32:41.191Z,100.00
2023-04-15T20:35:10.036Z,100.00
2023-04-15T20:37:40.377Z,100.00
2023-04-15T20:40:09.441Z,100.00
2023-04-15T20:42:37.897Z,100.00
2023-04-15T20:45:07.063Z,100.00
2023-04-15T20:47:37.983Z,100.00
2023-04-15T20:50:10.476Z,100.00
2023-04-15T20:52:41.239Z,100.00
2023-04-15T20:55:09.823Z,100.00
2023-04-15T20:57:37.563Z,100.00
2023-04-15T21:00:06.529Z,100.00
2023-04-15T21:02:35.569Z,100.00
2023-04-15T21:05:03.686Z,100.00
2023-04-15T21:07:32.906Z,100.00
2023-04-15T21:10:00.714Z,100.00
2023-04-15T21:12:28.530Z,100.00
2023-04-15T21:14:56.267Z,100.00
2023-04-15T21:17:24.003Z,100.00
2023-04-15T21:19:51.788Z,100.00
2023-04-15T21:22:19.536Z,100.00
2023-04-15T21:24:49.613Z,100.00
2023-04-15T21:27:17.317Z,100.00
2023-04-15T21:29:45.475Z,100.00
2023-04-15T21:32:13.239Z,100.00
2023-04-15T21:34:41.045Z,100.00
2023-04-15T21:37:08.794Z,100.00
2023-04-15T21:39:36.534Z,100.00
2023-04-15T21:42:05.864Z,100.00
2023-04-15T21:44:33.624Z,100.00
2023-04-15T21:47:01.987Z,100.00
2023-04-15T21:49:30.131Z,100.00
2023-04-15T21:52:01.264Z,100.00
2023-04-15T21:54:31.017Z,100.00
2023-04-15T21:56:58.720Z,100.00
2023-04-15T21:59:27.740Z,100.00
2023-04-15T22:01:55.652Z,100.00
2023-04-15T22:04:23.571Z,100.00
2023-04-15T22:06:52.226Z,100.00
2023-04-15T22:09:19.991Z,100.00
2023-04-15T22:11:48.386Z,100.00
2023-04-15T22:14:16.266Z,100.00
2023-04-15T22:16:45.713Z,100.00
2023-04-15T22:19:13.483Z,100.00
2023-04-15T22:21:41.157Z,100.00
2023-04-15T22:24:32.973Z,100.00
2023-04-15T22:26:56.788Z,100.00
2023-04-15T22:29:24.451Z,100.00
2023-04-15T22:31:54.639Z,100.00
2023-04-15T22:34:22.459Z,100.00
2023-04-15T22:36:50.797Z,100.00
2023-04-15T22:39:19.369Z,100.00
2023-04-15T22:41:47.856Z,100.00
2023-04-15T22:44:15.758Z,100.00
2023-04-15T22:46:43.839Z,100.00
2023-04-15T22:49:13.033Z,100.00
2023-04-15T22:51:40.780Z,100.00
2023-04-15T22:54:08.551Z,100.00
2023-04-15T22:56:36.256Z,100.00
2023-04-15T22:59:04.022Z,100.00
2023-04-15T23:01:32.383Z,100.00
2023-04-15T23:04:05.902Z,100.00
2023-04-15T23:06:49.321Z,100.00
2023-04-15T23:09:17.108Z,100.00
2023-04-15T23:11:44.851Z,100.00
2023-04-15T23:14:12.550Z,100.00
2023-04-15T23:16:40.378Z,100.00
2023-04-15T23:19:08.404Z,100.00
2023-04-15T23:21:36.565Z,100.00
2023-04-15T23:24:06.036Z,100.00
2023-04-15T23:26:33.720Z,100.00
2023-04-15T23:29:01.483Z,100.00
2023-04-15T23:31:29.305Z,100.00
2023-04-15T23:33:57.087Z,100.00
2023-04-15T23:36:24.850Z,100.00
2023-04-15T23:38:52.576Z,100.00
2023-04-15T23:41:21.693Z,100.00
2023-04-15T23:43:49.747Z,100.00
2023-04-15T23:46:17.822Z,100.00
2023-04-15T23:48:47.669Z,100.00
2023-04-15T23:51:15.631Z,100.00
2023-04-15T23:53:43.386Z,100.00
2023-04-15T23:56:11.216Z,100.00
2023-04-15T23:58:40.367Z,100.00
